Time;durP1;ratioP1;P1;durP2;ratioP2;P2;SDS_P1;SDS_P2;PMS_P1;PMS_P2;Temp;Humidity;BMP_temperature;BMP_pressure;BME280_temperature;BME280_humidity;BME280_pressure;Samples;Min_cycle;Max_cycle;Signal;HPM_P1;HPM_P2
2023/03/03 00:02:19;;;;;;;;;;;0.90;99.90;;;;;;5070278;28;19974;-67
2023/03/03 00:04:47;;;;;;;;;;;0.90;99.90;;;;;;5070171;28;20388;-67
2023/03/03 00:07:20;;;;;;;;;;;0.80;99.90;;;;;;5070115;28;19925;-67
2023/03/03 00:09:47;;;;;;;;;;;0.90;99.90;;;;;;5069644;28;19925;-67
2023/03/03 00:12:20;;;;;;;;;;;0.80;99.90;;;;;;5070114;28;19924;-67
2023/03/03 00:14:47;;;;;;;;;;;0.80;99.90;;;;;;5070172;28;20425;-67
2023/03/03 00:17:19;;;;;;;;;;;0.80;99.90;;;;;;5067964;28;19978;-66
2023/03/03 00:19:48;;;;;;;;;;;0.80;99.90;;;;;;5070109;28;19968;-67
2023/03/03 00:22:18;;;;;;;;;;;0.70;99.90;;;;;;5070163;28;20357;-66
2023/03/03 00:24:44;;;;;;;;;;;0.70;99.90;;;;;;5070261;28;19970;-67
2023/03/03 00:27:17;;;;;;;;;;;0.60;99.90;;;;;;5069912;28;19925;-66
2023/03/03 00:29:46;;;;;;;;;;;0.50;99.90;;;;;;5070110;28;19931;-67
2023/03/03 00:32:19;;;;;;;;;;;0.60;99.90;;;;;;5069916;28;19998;-69
2023/03/03 00:34:48;;;;;;;;;;;0.50;99.90;;;;;;5070091;28;19924;-69
2023/03/03 00:37:22;;;;;;;;;;;0.50;99.90;;;;;;5069875;28;20031;-66
2023/03/03 00:39:49;;;;;;;;;;;0.40;99.90;;;;;;5069716;28;19924;-67
2023/03/03 00:42:16;;;;;;;;;;;0.30;99.90;;;;;;5070057;28;19955;-66
2023/03/03 00:44:43;;;;;;;;;;;0.30;99.90;;;;;;5076579;28;19925;-67
2023/03/03 00:47:20;;;;;;;;;;;0.30;99.90;;;;;;5075080;28;19925;-67
2023/03/03 00:49:48;;;;;;;;;;;0.30;99.90;;;;;;5069939;28;19970;-69
2023/03/03 00:52:16;;;;;;;;;;;0.30;99.90;;;;;;5070223;28;19924;-69
2023/03/03 00:54:43;;;;;;;;;;;0.30;99.90;;;;;;5069237;28;19928;-68
2023/03/03 00:57:11;;;;;;;;;;;0.30;99.90;;;;;;5064592;28;19928;-69
2023/03/03 00:59:38;;;;;;;;;;;0.30;99.90;;;;;;5074701;28;19964;-69
2023/03/03 01:02:05;;;;;;;;;;;0.20;99.90;;;;;;5069993;28;20295;-68
2023/03/03 01:04:32;;;;;;;;;;;0.10;99.90;;;;;;5067573;28;19970;-69
2023/03/03 01:07:00;;;;;;;;;;;0.10;99.90;;;;;;5070627;28;19935;-68
2023/03/03 01:09:27;;;;;;;;;;;0.20;99.90;;;;;;5073268;28;20421;-68
2023/03/03 01:11:55;;;;;;;;;;;0.10;99.90;;;;;;5069931;28;19931;-68
2023/03/03 01:14:21;;;;;;;;;;;0.10;99.90;;;;;;5073009;28;20314;-69
2023/03/03 01:16:49;;;;;;;;;;;0.10;99.90;;;;;;5072924;28;19929;-68
2023/03/03 01:19:17;;;;;;;;;;;0.10;99.90;;;;;;5072999;28;20411;-69
2023/03/03 01:21:44;;;;;;;;;;;0.00;99.90;;;;;;5073010;28;19931;-69
2023/03/03 01:24:12;;;;;;;;;;;0.10;99.90;;;;;;5073211;28;19924;-68
2023/03/03 01:26:39;;;;;;;;;;;0.10;99.90;;;;;;5072779;28;20457;-69
2023/03/03 01:29:06;;;;;;;;;;;0.20;99.90;;;;;;5072766;28;19925;-69
2023/03/03 01:31:33;;;;;;;;;;;0.30;99.90;;;;;;5072377;28;19924;-69
2023/03/03 01:34:00;;;;;;;;;;;0.30;99.90;;;;;;5072922;28;20358;-68
2023/03/03 01:36:28;;;;;;;;;;;0.40;99.90;;;;;;5072710;28;19970;-69
2023/03/03 01:38:55;;;;;;;;;;;0.40;99.90;;;;;;5095315;28;19932;-68
2023/03/03 01:41:23;;;;;;;;;;;0.50;99.90;;;;;;5072643;28;19974;-70
2023/03/03 01:43:50;;;;;;;;;;;0.50;99.90;;;;;;5072716;28;20460;-68
2023/03/03 01:46:28;;;;;;;;;;;0.60;99.90;;;;;;5067052;28;19932;-69
2023/03/03 01:49:01;;;;;;;;;;;0.70;99.90;;;;;;5064795;28;19932;-69
2023/03/03 01:51:29;;;;;;;;;;;0.70;99.90;;;;;;5072874;28;19924;-69
2023/03/03 01:53:57;;;;;;;;;;;0.70;99.90;;;;;;5072408;28;19924;-69
2023/03/03 01:56:25;;;;;;;;;;;0.70;99.90;;;;;;5072669;28;19978;-69
2023/03/03 01:58:53;;;;;;;;;;;0.70;99.90;;;;;;5072328;28;19924;-69
2023/03/03 02:01:21;;;;;;;;;;;0.80;99.90;;;;;;5071233;28;19928;-69
2023/03/03 02:03:48;;;;;;;;;;;0.80;99.90;;;;;;5071745;28;19990;-69
2023/03/03 02:06:16;;;;;;;;;;;0.80;99.90;;;;;;5072320;28;19924;-69
2023/03/03 02:08:48;;;;;;;;;;;0.80;99.90;;;;;;5072147;28;19931;-70
2023/03/03 02:11:16;;;;;;;;;;;0.80;99.90;;;;;;5072307;28;19925;-69
2023/03/03 02:13:44;;;;;;;;;;;0.80;99.90;;;;;;5071836;28;20411;-69
2023/03/03 02:16:11;;;;;;;;;;;0.80;99.90;;;;;;5072373;28;19970;-69
2023/03/03 02:18:38;;;;;;;;;;;0.80;99.90;;;;;;5071559;28;19931;-69
2023/03/03 02:21:07;;;;;;;;;;;0.90;99.90;;;;;;5068343;28;19924;-67
2023/03/03 02:23:36;;;;;;;;;;;0.80;99.90;;;;;;5072316;28;19933;-69
2023/03/03 02:26:09;;;;;;;;;;;0.80;99.90;;;;;;5071970;28;19931;-69
2023/03/03 02:28:37;;;;;;;;;;;0.80;99.90;;;;;;5071923;28;19931;-68
2023/03/03 02:31:09;;;;;;;;;;;0.80;99.90;;;;;;5071767;28;19974;-69
2023/03/03 02:33:36;;;;;;;;;;;0.90;99.90;;;;;;5071525;28;19928;-69
2023/03/03 02:36:03;;;;;;;;;;;0.90;99.90;;;;;;5063726;28;19924;-69
2023/03/03 02:38:33;;;;;;;;;;;1.00;99.90;;;;;;5071445;28;19928;-69
2023/03/03 02:41:03;;;;;;;;;;;1.00;99.90;;;;;;5071402;28;19925;-69
2023/03/03 02:43:34;;;;;;;;;;;1.00;99.90;;;;;;5071313;28;19935;-69
2023/03/03 02:46:00;;;;;;;;;;;1.00;99.90;;;;;;5064404;28;19934;-68
2023/03/03 02:48:27;;;;;;;;;;;1.00;99.90;;;;;;5070916;28;20338;-70
2023/03/03 02:50:54;;;;;;;;;;;1.00;99.90;;;;;;5071165;28;20023;-69
2023/03/03 02:53:21;;;;;;;;;;;1.00;99.90;;;;;;5071166;28;19943;-69
2023/03/03 02:55:47;;;;;;;;;;;1.00;99.90;;;;;;5071425;28;19924;-69
2023/03/03 02:58:15;;;;;;;;;;;1.00;99.90;;;;;;5071234;28;19924;-69
2023/03/03 03:00:46;;;;;;;;;;;0.90;99.90;;;;;;5071467;28;19925;-68
2023/03/03 03:03:17;;;;;;;;;;;0.90;99.90;;;;;;5070200;28;19928;-69
2023/03/03 03:05:45;;;;;;;;;;;0.90;99.90;;;;;;5070945;28;20018;-69
2023/03/03 03:08:12;;;;;;;;;;;0.90;99.90;;;;;;5071731;28;20007;-69
2023/03/03 03:10:39;;;;;;;;;;;0.90;99.90;;;;;;5071286;28;19925;-69
2023/03/03 03:13:06;;;;;;;;;;;0.90;99.90;;;;;;5066370;28;20404;-69
2023/03/03 03:15:34;;;;;;;;;;;1.00;99.90;;;;;;5068638;28;20011;-69
2023/03/03 03:18:03;;;;;;;;;;;1.00;99.90;;;;;;5070950;28;19925;-69
2023/03/03 03:20:30;;;;;;;;;;;0.90;99.90;;;;;;5071196;28;20276;-68
2023/03/03 03:22:57;;;;;;;;;;;0.90;99.90;;;;;;5070665;28;19925;-67
2023/03/03 03:25:24;;;;;;;;;;;0.90;99.90;;;;;;5071117;28;19931;-67
2023/03/03 03:27:51;;;;;;;;;;;0.90;99.90;;;;;;5070552;28;19928;-67
2023/03/03 03:30:19;;;;;;;;;;;0.90;99.90;;;;;;5070388;28;19931;-66
2023/03/03 03:32:47;;;;;;;;;;;0.90;99.90;;;;;;5070882;28;19931;-67
2023/03/03 03:35:16;;;;;;;;;;;0.90;99.90;;;;;;5070476;28;19931;-67
2023/03/03 03:37:43;;;;;;;;;;;0.90;99.90;;;;;;5070370;28;19925;-67
2023/03/03 03:40:11;;;;;;;;;;;0.90;99.90;;;;;;5071999;28;19955;-67
2023/03/03 03:42:40;;;;;;;;;;;0.90;99.90;;;;;;5070710;28;20006;-67
2023/03/03 03:45:08;;;;;;;;;;;0.90;99.90;;;;;;5070629;28;19931;-67
2023/03/03 03:47:35;;;;;;;;;;;0.90;99.90;;;;;;5070234;28;20471;-67
2023/03/03 03:50:01;;;;;;;;;;;0.90;99.90;;;;;;5070690;28;19925;-67
2023/03/03 03:52:30;;;;;;;;;;;0.90;99.90;;;;;;5067145;28;19924;-67
2023/03/03 03:54:57;;;;;;;;;;;0.90;99.90;;;;;;5070181;28;19924;-66
2023/03/03 03:57:24;;;;;;;;;;;0.90;99.90;;;;;;5070463;28;19924;-67
2023/03/03 03:59:51;;;;;;;;;;;0.90;99.90;;;;;;5070379;28;20050;-67
2023/03/03 04:02:18;;;;;;;;;;;0.90;99.90;;;;;;5070360;28;19924;-68
2023/03/03 04:04:45;;;;;;;;;;;0.90;99.90;;;;;;5070156;28;20002;-67
2023/03/03 04:07:12;;;;;;;;;;;0.90;99.90;;;;;;5070226;28;19924;-67
2023/03/03 04:09:40;;;;;;;;;;;0.90;99.90;;;;;;5070296;28;19928;-67
2023/03/03 04:12:08;;;;;;;;;;;0.90;99.90;;;;;;5070317;28;19947;-66
2023/03/03 04:14:35;;;;;;;;;;;0.90;99.90;;;;;;5069932;28;19932;-66
2023/03/03 04:17:02;;;;;;;;;;;0.90;99.90;;;;;;5070012;28;20333;-66
2023/03/03 04:19:29;;;;;;;;;;;1.00;99.90;;;;;;5067005;28;19931;-67
2023/03/03 04:21:55;;;;;;;;;;;1.00;99.90;;;;;;5070215;28;20391;-66
2023/03/03 04:24:22;;;;;;;;;;;1.00;99.90;;;;;;5070263;28;19925;-67
2023/03/03 04:26:53;;;;;;;;;;;1.00;99.90;;;;;;5070349;28;19929;-64
2023/03/03 04:29:19;;;;;;;;;;;1.00;99.90;;;;;;5070127;28;19925;-66
2023/03/03 04:31:46;;;;;;;;;;;1.00;99.90;;;;;;5070085;28;19964;-67
2023/03/03 04:34:13;;;;;;;;;;;1.00;99.90;;;;;;5061948;28;19935;-66
2023/03/03 04:36:41;;;;;;;;;;;1.00;99.90;;;;;;5069644;28;20027;-67
2023/03/03 04:39:08;;;;;;;;;;;1.10;99.90;;;;;;5069659;28;19948;-67
2023/03/03 04:41:35;;;;;;;;;;;1.10;99.90;;;;;;5069283;28;19932;-67
2023/03/03 04:44:03;;;;;;;;;;;1.10;99.90;;;;;;5073746;28;20039;-67
2023/03/03 04:46:30;;;;;;;;;;;1.10;99.90;;;;;;5073563;28;19924;-67
2023/03/03 04:48:58;;;;;;;;;;;1.10;99.90;;;;;;5073463;28;19933;-67
2023/03/03 04:51:26;;;;;;;;;;;1.10;99.90;;;;;;5073980;28;19924;-66
2023/03/03 04:53:53;;;;;;;;;;;1.10;99.90;;;;;;5075231;28;19929;-66
2023/03/03 04:56:20;;;;;;;;;;;1.10;99.90;;;;;;5074012;28;20016;-67
2023/03/03 04:58:49;;;;;;;;;;;1.10;99.90;;;;;;5073299;28;19970;-67
2023/03/03 05:01:18;;;;;;;;;;;1.10;99.90;;;;;;5073834;28;19991;-67
2023/03/03 05:03:45;;;;;;;;;;;1.10;99.90;;;;;;5075043;28;19943;-67
2023/03/03 05:06:12;;;;;;;;;;;1.10;99.90;;;;;;5072982;28;19929;-66
2023/03/03 05:08:39;;;;;;;;;;;1.10;99.90;;;;;;5071113;28;19986;-67
2023/03/03 05:11:06;;;;;;;;;;;1.00;99.90;;;;;;5068287;28;19929;-69
2023/03/03 05:13:32;;;;;;;;;;;1.00;99.90;;;;;;5073455;28;19925;-70
2023/03/03 05:15:59;;;;;;;;;;;0.90;99.90;;;;;;5069084;28;19937;-68
2023/03/03 05:18:27;;;;;;;;;;;0.90;99.90;;;;;;5073091;28;19924;-69
2023/03/03 05:20:54;;;;;;;;;;;0.90;99.90;;;;;;5073040;28;19924;-69
2023/03/03 05:23:21;;;;;;;;;;;0.80;99.90;;;;;;5071781;28;19925;-68
2023/03/03 05:25:48;;;;;;;;;;;0.90;99.90;;;;;;5071493;28;20358;-68
2023/03/03 05:28:15;;;;;;;;;;;0.90;99.90;;;;;;5063936;28;19924;-69
2023/03/03 05:30:42;;;;;;;;;;;0.90;99.90;;;;;;5085436;28;19925;-69
2023/03/03 05:33:10;;;;;;;;;;;1.00;99.90;;;;;;5072862;28;19968;-68
2023/03/03 05:35:38;;;;;;;;;;;1.00;99.90;;;;;;5073004;28;19925;-69
2023/03/03 05:38:05;;;;;;;;;;;1.00;99.90;;;;;;5072670;28;19932;-70
2023/03/03 05:40:31;;;;;;;;;;;1.00;99.90;;;;;;5073052;28;19928;-70
2023/03/03 05:42:58;;;;;;;;;;;1.10;99.90;;;;;;5070279;28;20285;-70
2023/03/03 05:45:25;;;;;;;;;;;1.00;99.90;;;;;;5065192;28;19998;-65
2023/03/03 05:47:52;;;;;;;;;;;1.00;99.90;;;;;;5073141;28;19928;-69
2023/03/03 05:50:19;;;;;;;;;;;1.10;99.90;;;;;;5073295;28;19924;-67
2023/03/03 05:52:49;;;;;;;;;;;1.00;99.90;;;;;;5072295;28;19928;-68
2023/03/03 05:55:16;;;;;;;;;;;1.10;99.90;;;;;;5072624;28;19924;-66
2023/03/03 05:57:43;;;;;;;;;;;1.20;99.90;;;;;;5072469;28;19932;-67
2023/03/03 06:00:10;;;;;;;;;;;1.40;99.90;;;;;;5072858;28;19925;-67
2023/03/03 06:02:40;;;;;;;;;;;1.50;99.90;;;;;;5067919;28;19970;-65
2023/03/03 06:05:07;;;;;;;;;;;1.50;99.90;;;;;;5072699;28;19924;-66
2023/03/03 06:07:34;;;;;;;;;;;1.50;99.90;;;;;;5072319;28;20018;-65
2023/03/03 06:10:02;;;;;;;;;;;1.40;99.90;;;;;;5072398;28;19924;-67
2023/03/03 06:12:31;;;;;;;;;;;1.30;99.90;;;;;;5074032;28;19928;-67
2023/03/03 06:14:58;;;;;;;;;;;1.20;99.90;;;;;;5075713;28;20314;-66
2023/03/03 06:17:25;;;;;;;;;;;1.10;99.90;;;;;;5073539;28;20504;-67
2023/03/03 06:19:52;;;;;;;;;;;1.20;99.90;;;;;;5071944;28;20391;-69
2023/03/03 06:22:18;;;;;;;;;;;1.10;99.90;;;;;;5071886;28;19932;-68
2023/03/03 06:24:45;;;;;;;;;;;1.10;99.90;;;;;;5071913;28;19924;-68
2023/03/03 06:27:13;;;;;;;;;;;1.20;99.90;;;;;;5073744;28;19936;-69
2023/03/03 06:29:40;;;;;;;;;;;1.20;99.90;;;;;;5071720;28;19924;-69
2023/03/03 06:32:07;;;;;;;;;;;1.20;99.90;;;;;;5073837;28;19925;-70
2023/03/03 06:34:34;;;;;;;;;;;1.20;99.90;;;;;;5069101;28;19944;-70
2023/03/03 06:37:01;;;;;;;;;;;1.20;99.90;;;;;;5071329;28;19925;-70
2023/03/03 06:39:28;;;;;;;;;;;1.20;99.90;;;;;;5071366;28;19948;-70
2023/03/03 06:41:55;;;;;;;;;;;1.20;99.90;;;;;;5073265;28;19964;-70
2023/03/03 06:44:23;;;;;;;;;;;1.30;99.90;;;;;;5071413;28;19959;-69
2023/03/03 06:46:50;;;;;;;;;;;1.30;99.90;;;;;;5071139;28;19924;-69
2023/03/03 06:49:17;;;;;;;;;;;1.30;99.90;;;;;;5071283;28;19970;-68
2023/03/03 06:51:45;;;;;;;;;;;1.30;99.90;;;;;;5071255;28;20288;-67
2023/03/03 06:54:12;;;;;;;;;;;1.30;99.90;;;;;;5065857;28;19924;-67
2023/03/03 06:56:39;;;;;;;;;;;1.40;99.90;;;;;;5071046;28;19925;-69
2023/03/03 06:59:10;;;;;;;;;;;1.40;99.90;;;;;;5062120;28;19963;-68
2023/03/03 07:01:38;;;;;;;;;;;1.30;99.90;;;;;;5068451;28;19928;-69
2023/03/03 07:04:10;;;;;;;;;;;1.20;99.90;;;;;;5071614;28;19932;-70
2023/03/03 07:06:37;;;;;;;;;;;1.20;99.90;;;;;;5069987;28;19925;-70
2023/03/03 07:09:08;;;;;;;;;;;1.20;99.90;;;;;;5073210;28;19970;-70
2023/03/03 07:11:38;;;;;;;;;;;1.20;99.90;;;;;;5073592;28;19943;-70
2023/03/03 07:14:09;;;;;;;;;;;1.10;99.90;;;;;;5073065;28;19987;-69
2023/03/03 07:16:37;;;;;;;;;;;1.10;99.90;;;;;;5073746;28;19925;-69
2023/03/03 07:19:05;;;;;;;;;;;1.20;99.90;;;;;;5074206;28;19924;-70
2023/03/03 07:21:33;;;;;;;;;;;1.20;99.90;;;;;;5075306;28;19924;-69
2023/03/03 07:24:01;;;;;;;;;;;1.20;99.90;;;;;;5073192;28;20322;-70
2023/03/03 07:26:29;;;;;;;;;;;1.20;99.90;;;;;;5072098;28;19925;-70
2023/03/03 07:28:58;;;;;;;;;;;1.20;99.90;;;;;;5072777;28;19932;-74
2023/03/03 07:31:29;;;;;;;;;;;1.20;99.90;;;;;;5070081;28;20281;-69
2023/03/03 07:33:59;;;;;;;;;;;1.20;99.90;;;;;;5069499;28;19985;-70
2023/03/03 07:36:30;;;;;;;;;;;1.30;99.90;;;;;;5071591;28;19924;-69
2023/03/03 07:38:58;;;;;;;;;;;1.30;99.90;;;;;;5070118;28;19924;-69
2023/03/03 07:41:25;;;;;;;;;;;1.30;99.90;;;;;;5069936;28;19924;-70
2023/03/03 07:43:53;;;;;;;;;;;1.20;99.90;;;;;;5072929;28;19928;-66
2023/03/03 07:46:27;;;;;;;;;;;1.30;99.90;;;;;;5071079;28;19956;-67
2023/03/03 07:48:54;;;;;;;;;;;1.40;99.90;;;;;;5070512;28;20020;-69
2023/03/03 07:51:26;;;;;;;;;;;1.40;99.90;;;;;;5069660;28;19925;-69
2023/03/03 07:53:53;;;;;;;;;;;1.40;99.90;;;;;;5069338;28;19928;-70
2023/03/03 07:56:28;;;;;;;;;;;1.30;99.90;;;;;;5074816;28;19928;-70
2023/03/03 07:58:56;;;;;;;;;;;1.40;99.90;;;;;;5078452;28;19930;-69
2023/03/03 08:01:36;;;;;;;;;;;1.40;99.90;;;;;;5072945;28;20429;-68
2023/03/03 08:04:06;;;;;;;;;;;1.50;99.90;;;;;;5069057;28;20353;-70
2023/03/03 08:06:41;;;;;;;;;;;1.50;99.90;;;;;;5070517;28;20407;-67
2023/03/03 08:09:27;;;;;;;;;;;1.40;99.90;;;;;;5070212;28;19925;-67
2023/03/03 08:11:55;;;;;;;;;;;1.40;99.90;;;;;;5067749;28;19929;-68
2023/03/03 08:14:25;;;;;;;;;;;1.40;99.90;;;;;;5070020;28;19957;-67
2023/03/03 08:16:51;;;;;;;;;;;1.50;99.90;;;;;;5073178;28;19932;-67
2023/03/03 08:19:18;;;;;;;;;;;1.50;99.90;;;;;;5073902;28;19928;-67
2023/03/03 08:21:46;;;;;;;;;;;1.50;99.90;;;;;;5076424;28;19925;-67
2023/03/03 08:24:13;;;;;;;;;;;1.50;99.90;;;;;;5073892;28;20387;-67
2023/03/03 08:26:40;;;;;;;;;;;1.50;99.90;;;;;;5073475;28;19971;-68
2023/03/03 08:29:07;;;;;;;;;;;1.60;99.90;;;;;;5068009;28;19929;-67
2023/03/03 08:31:33;;;;;;;;;;;1.50;99.90;;;;;;5072046;28;19955;-66
2023/03/03 08:34:02;;;;;;;;;;;1.50;99.90;;;;;;5066693;28;20354;-65
2023/03/03 08:36:29;;;;;;;;;;;1.40;99.90;;;;;;5076587;28;19925;-66
2023/03/03 08:38:57;;;;;;;;;;;1.40;99.90;;;;;;5074977;28;19931;-64
2023/03/03 08:41:23;;;;;;;;;;;1.40;99.90;;;;;;5073990;28;19932;-67
2023/03/03 08:43:50;;;;;;;;;;;1.40;99.90;;;;;;5074569;28;19928;-68
2023/03/03 08:46:17;;;;;;;;;;;1.30;99.90;;;;;;5070724;28;19925;-68
2023/03/03 08:48:44;;;;;;;;;;;1.40;99.90;;;;;;5066639;28;19936;-65
2023/03/03 08:51:10;;;;;;;;;;;1.40;99.90;;;;;;5071890;28;19925;-66
2023/03/03 08:53:37;;;;;;;;;;;1.30;99.90;;;;;;5075615;28;19924;-66
2023/03/03 08:56:06;;;;;;;;;;;1.30;99.90;;;;;;5068565;28;19929;-64
2023/03/03 08:58:32;;;;;;;;;;;1.40;99.90;;;;;;5069919;28;19928;-65
2023/03/03 09:00:59;;;;;;;;;;;1.40;99.90;;;;;;5066575;28;19989;-68
2023/03/03 09:03:26;;;;;;;;;;;1.40;99.90;;;;;;5069591;28;19924;-68
2023/03/03 09:05:53;;;;;;;;;;;1.50;99.90;;;;;;5074216;28;19932;-69
2023/03/03 09:08:19;;;;;;;;;;;1.60;99.90;;;;;;5073051;28;19925;-69
2023/03/03 09:10:46;;;;;;;;;;;1.70;99.90;;;;;;5072482;28;19982;-70
2023/03/03 09:13:16;;;;;;;;;;;1.70;99.90;;;;;;5073824;28;19932;-68
2023/03/03 09:15:43;;;;;;;;;;;1.60;99.90;;;;;;5076351;28;19924;-67
2023/03/03 09:18:17;;;;;;;;;;;1.60;99.90;;;;;;5072910;28;19974;-67
2023/03/03 09:20:44;;;;;;;;;;;1.70;99.90;;;;;;5073042;28;19928;-66
2023/03/03 09:23:32;;;;;;;;;;;1.80;99.90;;;;;;5072613;28;19924;-67
2023/03/03 09:26:11;;;;;;;;;;;1.90;99.90;;;;;;5068125;28;20392;-66
2023/03/03 09:28:39;;;;;;;;;;;1.90;99.90;;;;;;5069835;28;19924;-69
2023/03/03 09:31:17;;;;;;;;;;;2.00;99.90;;;;;;5072295;28;20303;-69
2023/03/03 09:33:45;;;;;;;;;;;2.00;99.90;;;;;;5079690;28;19951;-69
2023/03/03 09:36:24;;;;;;;;;;;2.00;99.90;;;;;;5072583;28;20391;-70
2023/03/03 09:38:52;;;;;;;;;;;2.10;99.90;;;;;;5072316;28;19932;-71
2023/03/03 09:41:43;;;;;;;;;;;2.10;99.90;;;;;;5072471;28;19929;-68
2023/03/03 09:44:19;;;;;;;;;;;2.20;99.90;;;;;;5078217;28;19924;-68
2023/03/03 09:46:54;;;;;;;;;;;2.30;99.90;;;;;;5074836;28;19924;-67
2023/03/03 09:49:25;;;;;;;;;;;2.40;99.90;;;;;;5072631;28;19924;-66
2023/03/03 09:52:19;;;;;;;;;;;2.50;99.90;;;;;;5065271;28;19928;-67
2023/03/03 09:54:50;;;;;;;;;;;2.60;99.90;;;;;;5038120;28;20368;-67
2023/03/03 09:57:20;;;;;;;;;;;2.70;99.90;;;;;;5075627;28;19925;-67
2023/03/03 10:00:07;;;;;;;;;;;2.70;99.90;;;;;;5077551;28;19943;-68
2023/03/03 10:02:44;;;;;;;;;;;2.50;99.90;;;;;;5070513;28;19996;-70
2023/03/03 10:05:19;;;;;;;;;;;2.50;99.90;;;;;;5068026;28;20358;-70
2023/03/03 10:07:51;;;;;;;;;;;2.50;99.90;;;;;;5075206;28;19925;-70
2023/03/03 10:10:29;;;;;;;;;;;2.60;99.90;;;;;;5072227;28;19977;-70
2023/03/03 10:13:09;;;;;;;;;;;2.50;99.90;;;;;;5077114;28;19967;-67
2023/03/03 10:15:40;;;;;;;;;;;2.70;99.90;;;;;;5073700;28;19925;-67
2023/03/03 10:18:14;;;;;;;;;;;2.70;99.90;;;;;;5080075;28;20012;-70
2023/03/03 10:20:57;;;;;;;;;;;2.80;99.90;;;;;;5075330;28;19924;-67
2023/03/03 10:23:31;;;;;;;;;;;2.90;99.90;;;;;;5074926;28;20567;-68
2023/03/03 10:26:05;;;;;;;;;;;2.90;99.90;;;;;;5077531;28;19924;-70
2023/03/03 10:28:45;;;;;;;;;;;2.90;99.90;;;;;;5075968;28;19924;-69
2023/03/03 10:31:18;;;;;;;;;;;2.90;99.90;;;;;;5067642;28;20354;-69
2023/03/03 10:33:49;;;;;;;;;;;2.80;99.90;;;;;;5073999;28;19928;-69
2023/03/03 10:36:20;;;;;;;;;;;2.80;99.90;;;;;;5069891;28;19970;-71
2023/03/03 10:38:54;;;;;;;;;;;2.70;99.90;;;;;;5069236;28;19978;-69
2023/03/03 10:41:36;;;;;;;;;;;2.70;99.90;;;;;;5070097;28;20358;-70
2023/03/03 10:44:08;;;;;;;;;;;2.70;99.90;;;;;;5067626;28;19938;-70
2023/03/03 10:46:48;;;;;;;;;;;2.80;99.90;;;;;;5076211;28;19929;-70
2023/03/03 10:49:26;;;;;;;;;;;2.80;99.90;;;;;;5076022;28;19928;-70
2023/03/03 10:51:59;;;;;;;;;;;2.80;99.90;;;;;;5070290;28;19929;-70
2023/03/03 10:54:29;;;;;;;;;;;2.90;99.90;;;;;;5070592;28;19924;-69
2023/03/03 10:57:00;;;;;;;;;;;3.00;99.90;;;;;;5070658;28;20337;-70
2023/03/03 10:59:35;;;;;;;;;;;3.20;99.90;;;;;;5071326;28;19932;-69
2023/03/03 11:02:05;;;;;;;;;;;3.30;99.90;;;;;;5075471;28;19936;-69
2023/03/03 11:04:39;;;;;;;;;;;3.30;99.90;;;;;;5077240;28;19925;-69
2023/03/03 11:07:08;;;;;;;;;;;3.40;99.90;;;;;;5069865;28;19924;-69
2023/03/03 11:09:43;;;;;;;;;;;3.50;99.90;;;;;;5075206;28;20342;-69
2023/03/03 11:12:18;;;;;;;;;;;3.50;99.90;;;;;;5076896;28;20372;-68
2023/03/03 11:14:47;;;;;;;;;;;3.50;99.90;;;;;;5076774;28;19933;-69
2023/03/03 11:17:18;;;;;;;;;;;3.50;99.90;;;;;;5068191;28;19978;-69
2023/03/03 11:19:55;;;;;;;;;;;3.50;99.90;;;;;;5073883;28;20414;-70
2023/03/03 11:22:32;;;;;;;;;;;3.50;99.90;;;;;;5070245;28;19959;-70
2023/03/03 11:25:03;;;;;;;;;;;3.50;99.90;;;;;;5070264;28;20387;-69
2023/03/03 11:27:36;;;;;;;;;;;3.60;99.90;;;;;;5068370;28;19968;-69
2023/03/03 11:30:09;;;;;;;;;;;3.60;99.90;;;;;;5077447;28;20360;-70
2023/03/03 11:32:41;;;;;;;;;;;3.60;99.90;;;;;;5074820;28;19928;-70
2023/03/03 11:35:17;;;;;;;;;;;3.60;99.90;;;;;;5074332;28;19924;-69
2023/03/03 11:37:46;;;;;;;;;;;3.60;99.90;;;;;;5077731;28;19924;-70
2023/03/03 11:40:16;;;;;;;;;;;3.60;99.90;;;;;;5071504;28;19929;-70
2023/03/03 11:42:50;;;;;;;;;;;3.60;99.90;;;;;;5078752;28;19924;-70
2023/03/03 11:45:18;;;;;;;;;;;3.60;99.90;;;;;;5080025;28;19924;-69
2023/03/03 11:47:49;;;;;;;;;;;3.70;99.90;;;;;;5072396;28;19929;-68
2023/03/03 11:50:21;;;;;;;;;;;3.90;99.90;;;;;;5069111;28;20042;-70
2023/03/03 11:52:52;;;;;;;;;;;3.90;99.90;;;;;;5079509;28;19925;-69
2023/03/03 11:55:20;;;;;;;;;;;4.00;99.90;;;;;;5074034;28;19924;-69
2023/03/03 11:57:50;;;;;;;;;;;3.90;99.90;;;;;;5076079;28;20011;-69
2023/03/03 12:00:26;;;;;;;;;;;3.80;99.90;;;;;;5069400;28;19924;-70
2023/03/03 12:03:11;;;;;;;;;;;3.80;99.90;;;;;;5067838;28;19924;-69
2023/03/03 12:05:46;;;;;;;;;;;3.90;99.90;;;;;;5069367;28;19928;-69
2023/03/03 12:08:18;;;;;;;;;;;3.80;99.90;;;;;;5080032;28;19924;-69
2023/03/03 12:10:49;;;;;;;;;;;3.80;99.90;;;;;;5073066;28;19940;-70
2023/03/03 12:13:19;;;;;;;;;;;3.80;99.90;;;;;;5075891;28;19928;-69
2023/03/03 12:15:50;;;;;;;;;;;3.80;99.90;;;;;;5071424;28;19928;-69
2023/03/03 12:18:24;;;;;;;;;;;3.80;99.90;;;;;;5065074;28;19925;-67
2023/03/03 12:20:56;;;;;;;;;;;3.80;99.90;;;;;;5063978;28;19932;-70
2023/03/03 12:23:37;;;;;;;;;;;3.60;99.90;;;;;;5073100;28;19924;-70
2023/03/03 12:26:06;;;;;;;;;;;3.60;99.90;;;;;;5077248;28;20002;-70
2023/03/03 12:28:37;;;;;;;;;;;3.70;99.90;;;;;;5070388;28;19932;-70
2023/03/03 12:31:09;;;;;;;;;;;3.80;99.90;;;;;;5078975;28;20005;-69
2023/03/03 12:33:44;;;;;;;;;;;3.80;99.90;;;;;;5076076;28;19929;-69
2023/03/03 12:36:18;;;;;;;;;;;3.80;99.90;;;;;;5068994;28;19978;-69
2023/03/03 12:38:48;;;;;;;;;;;4.00;99.90;;;;;;5079333;28;19924;-69
2023/03/03 12:41:17;;;;;;;;;;;4.00;99.90;;;;;;5078057;28;19946;-70
2023/03/03 12:43:50;;;;;;;;;;;4.10;99.90;;;;;;5076227;28;19930;-69
2023/03/03 12:46:20;;;;;;;;;;;4.10;99.90;;;;;;5078847;28;20444;-69
2023/03/03 12:48:47;;;;;;;;;;;4.20;99.90;;;;;;5074755;28;20434;-70
2023/03/03 12:51:31;;;;;;;;;;;4.30;99.90;;;;;;5068938;28;19925;-69
2023/03/03 12:54:19;;;;;;;;;;;4.50;99.90;;;;;;5069877;28;20295;-69
2023/03/03 12:56:48;;;;;;;;;;;4.50;99.90;;;;;;5080293;28;19932;-70
2023/03/03 12:59:20;;;;;;;;;;;4.50;99.90;;;;;;5073024;28;20346;-70
2023/03/03 13:01:54;;;;;;;;;;;4.60;99.90;;;;;;5068674;28;19929;-70
2023/03/03 13:04:29;;;;;;;;;;;4.70;99.90;;;;;;5080084;28;19924;-70
2023/03/03 13:07:00;;;;;;;;;;;4.70;99.90;;;;;;5077632;28;19928;-70
2023/03/03 13:09:30;;;;;;;;;;;4.70;99.90;;;;;;5081418;28;19929;-69
2023/03/03 13:12:05;;;;;;;;;;;4.80;99.90;;;;;;5080543;28;20352;-69
2023/03/03 13:14:34;;;;;;;;;;;4.80;99.90;;;;;;5078143;28;19925;-69
2023/03/03 13:17:04;;;;;;;;;;;4.70;99.90;;;;;;5075688;28;19947;-69
2023/03/03 13:19:33;;;;;;;;;;;4.60;99.90;;;;;;5077668;28;20291;-69
2023/03/03 13:22:07;;;;;;;;;;;4.40;99.90;;;;;;5074738;28;20387;-69
2023/03/03 13:24:37;;;;;;;;;;;4.30;99.90;;;;;;5081046;28;19924;-70
2023/03/03 13:27:07;;;;;;;;;;;4.20;99.90;;;;;;5081335;28;20342;-70
2023/03/03 13:29:36;;;;;;;;;;;4.30;99.90;;;;;;5077994;28;19928;-69
2023/03/03 13:32:03;;;;;;;;;;;4.30;99.90;;;;;;5083372;28;19931;-70
2023/03/03 13:34:40;;;;;;;;;;;4.30;99.90;;;;;;5071489;28;20361;-69
2023/03/03 13:37:14;;;;;;;;;;;4.40;99.90;;;;;;5074740;28;20373;-69
2023/03/03 13:39:46;;;;;;;;;;;4.40;99.90;;;;;;5087563;28;19932;-69
2023/03/03 13:42:19;;;;;;;;;;;4.50;99.90;;;;;;5074377;28;19954;-69
2023/03/03 13:44:47;;;;;;;;;;;4.60;99.90;;;;;;5078622;28;19931;-68
2023/03/03 13:47:16;;;;;;;;;;;4.60;99.90;;;;;;5075408;28;20342;-69
2023/03/03 13:50:00;;;;;;;;;;;4.60;99.90;;;;;;5076586;28;19978;-69
2023/03/03 13:52:29;;;;;;;;;;;4.60;99.90;;;;;;5070280;28;19932;-69
2023/03/03 13:55:01;;;;;;;;;;;4.50;99.90;;;;;;5074332;28;19935;-70
2023/03/03 13:57:38;;;;;;;;;;;4.40;99.90;;;;;;5079610;28;19985;-70
2023/03/03 14:00:13;;;;;;;;;;;4.30;99.90;;;;;;5070511;28;19924;-69
2023/03/03 14:02:58;;;;;;;;;;;4.40;99.90;;;;;;5077849;28;20288;-69
2023/03/03 14:05:27;;;;;;;;;;;4.40;99.90;;;;;;5077923;28;20341;-69
2023/03/03 14:07:58;;;;;;;;;;;4.60;99.90;;;;;;5067640;28;20331;-68
2023/03/03 14:10:29;;;;;;;;;;;4.60;99.90;;;;;;5072341;28;19925;-69
2023/03/03 14:12:59;;;;;;;;;;;4.60;99.90;;;;;;5059989;28;19925;-69
2023/03/03 14:15:29;;;;;;;;;;;4.60;99.90;;;;;;5071938;28;19924;-70
2023/03/03 14:18:04;;;;;;;;;;;4.50;99.90;;;;;;5070216;28;19925;-70
2023/03/03 14:20:31;;;;;;;;;;;4.30;99.90;;;;;;5071427;28;19933;-69
2023/03/03 14:23:02;;;;;;;;;;;4.30;99.90;;;;;;5067439;28;19931;-69
2023/03/03 14:25:49;;;;;;;;;;;4.30;99.90;;;;;;5077869;28;20333;-69
2023/03/03 14:28:22;;;;;;;;;;;4.30;99.90;;;;;;5071561;28;19970;-69
2023/03/03 14:30:49;;;;;;;;;;;4.20;99.90;;;;;;5071499;28;19932;-69
2023/03/03 14:33:20;;;;;;;;;;;4.20;99.90;;;;;;5070596;28;20026;-69
2023/03/03 14:35:51;;;;;;;;;;;4.20;99.90;;;;;;5072297;28;19928;-69
2023/03/03 14:38:21;;;;;;;;;;;4.30;99.90;;;;;;5071153;28;19932;-69
2023/03/03 14:40:49;;;;;;;;;;;4.20;99.90;;;;;;5062740;28;20350;-71
2023/03/03 14:43:21;;;;;;;;;;;4.20;99.90;;;;;;5073871;28;20039;-69
2023/03/03 14:45:48;;;;;;;;;;;4.30;99.90;;;;;;5084017;28;19932;-70
2023/03/03 14:48:16;;;;;;;;;;;4.40;99.90;;;;;;5064383;28;20645;-69